Time;durP1;ratioP1;P1;durP2;ratioP2;P2;SDS_P1;SDS_P2;PMS_P1;PMS_P2;Temp;Humidity;BMP_temperature;BMP_pressure;BME280_temperature;BME280_humidity;BME280_pressure;Samples;Min_cycle;Max_cycle;Signal;HPM_P1;HPM_P2
2021/11/15 00:02:14;;;;;;;60.17;31.83;;;;;;;;;;5095087;28;20109;-63
2021/11/15 00:04:40;;;;;;;62.45;33.15;;;;;;;;;;5090911;28;20499;-64
2021/11/15 00:07:06;;;;;;;67.30;33.85;;;;;;;;;;5094530;28;20047;-64
2021/11/15 00:09:33;;;;;;;62.25;32.58;;;;;;;;;;5094913;28;20048;-64
2021/11/15 00:12:00;;;;;;;59.55;30.73;;;;;;;;;;5093876;28;20118;-63
2021/11/15 00:14:27;;;;;;;65.72;34.05;;;;;;;;;;5096379;28;20131;-64
2021/11/15 00:16:53;;;;;;;67.68;32.28;;;;;;;;;;5093059;28;20422;-64
2021/11/15 00:19:19;;;;;;;62.17;33.08;;;;;;;;;;5096823;28;20395;-63
2021/11/15 00:21:45;;;;;;;63.50;32.63;;;;;;;;;;5095670;28;20423;-64
2021/11/15 00:24:11;;;;;;;72.15;33.45;;;;;;;;;;5094346;28;20036;-64
2021/11/15 00:26:38;;;;;;;71.53;33.40;;;;;;;;;;5095068;28;20039;-63
2021/11/15 00:29:04;;;;;;;67.50;32.20;;;;;;;;;;5095312;28;20032;-64
2021/11/15 00:31:30;;;;;;;61.83;29.83;;;;;;;;;;5092049;28;20427;-64
2021/11/15 00:33:56;;;;;;;66.47;33.13;;;;;;;;;;5086994;28;20408;-63
2021/11/15 00:36:23;;;;;;;71.15;33.53;;;;;;;;;;5094791;28;20044;-64
2021/11/15 00:38:49;;;;;;;77.90;36.78;;;;;;;;;;5093206;28;20039;-64
2021/11/15 00:41:16;;;;;;;82.75;36.28;;;;;;;;;;5092529;28;20044;-64
2021/11/15 00:43:42;;;;;;;76.45;34.88;;;;;;;;;;5095257;28;20443;-64
2021/11/15 00:46:08;;;;;;;77.45;37.72;;;;;;;;;;5085536;28;20048;-64
2021/11/15 00:48:35;;;;;;;80.72;37.15;;;;;;;;;;5087866;28;20052;-64
2021/11/15 00:51:01;;;;;;;74.28;36.88;;;;;;;;;;5092372;28;20466;-64
2021/11/15 00:53:28;;;;;;;80.22;35.20;;;;;;;;;;5093518;28;20040;-64
2021/11/15 00:55:56;;;;;;;75.55;35.13;;;;;;;;;;5093536;28;20059;-64
2021/11/15 00:58:22;;;;;;;88.28;36.70;;;;;;;;;;5088368;28;20109;-64
2021/11/15 01:00:48;;;;;;;79.97;37.50;;;;;;;;;;5089096;28;20395;-64
2021/11/15 01:03:16;;;;;;;86.30;36.95;;;;;;;;;;5094787;28;20047;-64
2021/11/15 01:05:48;;;;;;;85.38;36.00;;;;;;;;;;5092501;28;20454;-64
2021/11/15 01:08:15;;;;;;;84.38;37.90;;;;;;;;;;5087192;28;20044;-64
2021/11/15 01:10:41;;;;;;;89.18;37.60;;;;;;;;;;5090695;28;20087;-63
2021/11/15 01:13:08;;;;;;;79.88;35.67;;;;;;;;;;5089427;28;20487;-63
2021/11/15 01:15:34;;;;;;;89.97;37.88;;;;;;;;;;5092498;28;20291;-64
2021/11/15 01:18:01;;;;;;;90.55;38.42;;;;;;;;;;5094552;28;20047;-64
2021/11/15 01:20:31;;;;;;;82.85;37.38;;;;;;;;;;5088804;28;20060;-64
2021/11/15 01:22:58;;;;;;;88.35;36.42;;;;;;;;;;5091778;28;20044;-63
2021/11/15 01:25:24;;;;;;;89.53;38.25;;;;;;;;;;5088870;28;20040;-63
2021/11/15 01:27:50;;;;;;;80.18;37.55;;;;;;;;;;5093738;28;20058;-64
2021/11/15 01:30:18;;;;;;;86.60;37.00;;;;;;;;;;5094776;28;20047;-64
2021/11/15 01:32:44;;;;;;;89.45;38.28;;;;;;;;;;5094634;28;20040;-64
2021/11/15 01:35:11;;;;;;;97.05;38.55;;;;;;;;;;5090511;28;20123;-64
2021/11/15 01:37:38;;;;;;;90.50;37.80;;;;;;;;;;5093223;28;20044;-63
2021/11/15 01:40:05;;;;;;;87.90;39.05;;;;;;;;;;5092488;28;20044;-64
2021/11/15 01:42:31;;;;;;;92.70;40.03;;;;;;;;;;5094403;28;20047;-64
2021/11/15 01:44:57;;;;;;;85.88;37.35;;;;;;;;;;5089376;28;20040;-64
2021/11/15 01:47:23;;;;;;;82.28;37.08;;;;;;;;;;5092090;28;20349;-63
2021/11/15 01:49:50;;;;;;;83.43;36.13;;;;;;;;;;5092334;28;20082;-64
2021/11/15 01:52:16;;;;;;;90.05;38.83;;;;;;;;;;5091661;28;20518;-63
2021/11/15 01:54:42;;;;;;;89.93;38.47;;;;;;;;;;5092005;28;20136;-63
2021/11/15 01:57:08;;;;;;;87.50;37.88;;;;;;;;;;5091571;28;20036;-64
2021/11/15 01:59:35;;;;;;;87.53;38.95;;;;;;;;;;5088090;28;20540;-63
2021/11/15 02:02:01;;;;;;;88.43;36.80;;;;;;;;;;5092085;28;20491;-64
2021/11/15 02:04:27;;;;;;;87.90;37.22;;;;;;;;;;5092281;28;20109;-63
2021/11/15 02:06:54;;;;;;;97.93;38.15;;;;;;;;;;5092237;28;20048;-64
2021/11/15 02:09:20;;;;;;;89.93;39.28;;;;;;;;;;5091712;28;20154;-64
2021/11/15 02:11:46;;;;;;;88.78;37.63;;;;;;;;;;5090212;28;20039;-63
2021/11/15 02:14:12;;;;;;;84.60;34.95;;;;;;;;;;5090617;28;20047;-64
2021/11/15 02:16:39;;;;;;;79.13;35.45;;;;;;;;;;5086341;28;20042;-63
2021/11/15 02:19:05;;;;;;;83.47;36.17;;;;;;;;;;5091011;28;20052;-64
2021/11/15 02:21:31;;;;;;;86.60;36.25;;;;;;;;;;5092610;28;20039;-63
2021/11/15 02:23:58;;;;;;;81.70;36.55;;;;;;;;;;5092596;28;20048;-64
2021/11/15 02:26:25;;;;;;;84.95;37.00;;;;;;;;;;5090084;28;20051;-64
2021/11/15 02:28:53;;;;;;;87.53;35.28;;;;;;;;;;5093505;28;20047;-64
2021/11/15 02:31:22;;;;;;;76.72;33.67;;;;;;;;;;5086612;28;20040;-63
2021/11/15 02:33:51;;;;;;;82.80;34.00;;;;;;;;;;5086639;28;20075;-64
2021/11/15 02:36:18;;;;;;;80.55;35.72;;;;;;;;;;5092285;28;20044;-63
2021/11/15 02:38:45;;;;;;;81.68;33.70;;;;;;;;;;5090878;28;20497;-64
2021/11/15 02:41:11;;;;;;;81.57;35.42;;;;;;;;;;5089422;28;20131;-64
2021/11/15 02:43:37;;;;;;;84.28;35.53;;;;;;;;;;5090559;28;20036;-64
2021/11/15 02:46:03;;;;;;;79.50;34.28;;;;;;;;;;5089831;28;20052;-64
2021/11/15 02:48:30;;;;;;;78.72;33.28;;;;;;;;;;5091209;28;20048;-63
2021/11/15 02:50:56;;;;;;;77.68;33.08;;;;;;;;;;5092471;28;20036;-63
2021/11/15 02:53:22;;;;;;;80.60;33.55;;;;;;;;;;5085485;28;20051;-63
2021/11/15 02:55:48;;;;;;;84.80;35.00;;;;;;;;;;5086270;28;20111;-64
2021/11/15 02:58:15;;;;;;;81.22;35.28;;;;;;;;;;5091450;28;20438;-64
2021/11/15 03:00:44;;;;;;;78.07;33.42;;;;;;;;;;5091093;28;20081;-64
2021/11/15 03:03:11;;;;;;;80.10;33.30;;;;;;;;;;5087601;28;20060;-63
2021/11/15 03:05:39;;;;;;;78.85;34.63;;;;;;;;;;5089941;28;20502;-64
2021/11/15 03:08:05;;;;;;;81.57;33.35;;;;;;;;;;5091044;28;20056;-63
2021/11/15 03:10:33;;;;;;;78.47;32.85;;;;;;;;;;5091480;28;20496;-64
2021/11/15 03:13:00;;;;;;;80.07;34.25;;;;;;;;;;5088254;28;20426;-63
2021/11/15 03:15:27;;;;;;;76.25;32.80;;;;;;;;;;5088818;28;20088;-63
2021/11/15 03:17:54;;;;;;;78.25;33.35;;;;;;;;;;5088609;28;20506;-63
2021/11/15 03:20:20;;;;;;;77.50;33.97;;;;;;;;;;5091132;28;20051;-64
2021/11/15 03:22:48;;;;;;;75.63;33.17;;;;;;;;;;5088128;28;20153;-64
2021/11/15 03:25:15;;;;;;;75.78;31.95;;;;;;;;;;5089502;28;20055;-64
2021/11/15 03:27:41;;;;;;;74.40;31.30;;;;;;;;;;5092395;28;20044;-64
2021/11/15 03:30:07;;;;;;;74.47;32.22;;;;;;;;;;5084618;28;20044;-64
2021/11/15 03:32:33;;;;;;;73.18;30.98;;;;;;;;;;5087589;28;20489;-64
2021/11/15 03:35:02;;;;;;;76.15;31.95;;;;;;;;;;5082546;28;20048;-63
2021/11/15 03:37:28;;;;;;;75.18;30.98;;;;;;;;;;5090066;28;20052;-64
2021/11/15 03:39:54;;;;;;;70.03;33.33;;;;;;;;;;5091138;28;20047;-63
2021/11/15 03:42:20;;;;;;;74.50;31.42;;;;;;;;;;5089092;28;20036;-63
2021/11/15 03:44:46;;;;;;;80.40;32.03;;;;;;;;;;5089825;28;20043;-64
2021/11/15 03:47:12;;;;;;;77.05;32.80;;;;;;;;;;5090723;28;20040;-64
2021/11/15 03:49:39;;;;;;;73.47;29.98;;;;;;;;;;5090935;28;20108;-63
2021/11/15 03:52:05;;;;;;;80.50;33.17;;;;;;;;;;5090154;28;20063;-63
2021/11/15 03:54:31;;;;;;;79.30;31.10;;;;;;;;;;5090786;28;20032;-64
2021/11/15 03:56:57;;;;;;;75.57;31.73;;;;;;;;;;5086407;28;20071;-64
2021/11/15 03:59:23;;;;;;;76.57;31.23;;;;;;;;;;5090206;28;20123;-64
2021/11/15 04:01:52;;;;;;;77.28;30.85;;;;;;;;;;5091387;28;20044;-63
2021/11/15 04:04:19;;;;;;;72.70;31.63;;;;;;;;;;5084592;28;20063;-63
2021/11/15 04:06:52;;;;;;;79.90;31.75;;;;;;;;;;5085480;28;20762;-64
2021/11/15 04:09:19;;;;;;;90.03;32.08;;;;;;;;;;5085771;28;20139;-64
2021/11/15 04:11:45;;;;;;;73.07;30.95;;;;;;;;;;5093437;28;20036;-63
2021/11/15 04:14:14;;;;;;;74.60;29.65;;;;;;;;;;5088805;28;20044;-63
2021/11/15 04:16:42;;;;;;;60.70;27.67;;;;;;;;;;5091194;28;20444;-63
2021/11/15 04:19:11;;;;;;;73.40;30.77;;;;;;;;;;5096377;28;20044;-64
2021/11/15 04:21:37;;;;;;;67.93;28.70;;;;;;;;;;5090703;28;20096;-63
2021/11/15 04:24:05;;;;;;;70.22;29.13;;;;;;;;;;5087789;28;20044;-64
2021/11/15 04:26:32;;;;;;;75.10;30.63;;;;;;;;;;5092595;28;20547;-64
2021/11/15 04:28:58;;;;;;;76.10;30.15;;;;;;;;;;5087404;28;20118;-63
2021/11/15 04:31:25;;;;;;;73.22;27.90;;;;;;;;;;5091029;28;20055;-64
2021/11/15 04:33:51;;;;;;;71.38;27.52;;;;;;;;;;5093633;28;20044;-64
2021/11/15 04:36:18;;;;;;;64.95;27.65;;;;;;;;;;5095115;28;20667;-63
2021/11/15 04:38:44;;;;;;;64.35;28.23;;;;;;;;;;5094335;28;20055;-64
2021/11/15 04:41:10;;;;;;;64.63;28.23;;;;;;;;;;5095743;28;20136;-64
2021/11/15 04:43:36;;;;;;;67.55;27.20;;;;;;;;;;5096714;28;20036;-64
2021/11/15 04:46:02;;;;;;;67.07;26.42;;;;;;;;;;5091527;28;20044;-63
2021/11/15 04:48:28;;;;;;;66.32;27.25;;;;;;;;;;5090298;28;20114;-64
2021/11/15 04:50:55;;;;;;;61.53;25.88;;;;;;;;;;5089280;28;20040;-64
2021/11/15 04:53:21;;;;;;;63.55;26.13;;;;;;;;;;5094724;28;20110;-64
2021/11/15 04:55:47;;;;;;;61.47;25.85;;;;;;;;;;5091285;28;20038;-64
2021/11/15 04:58:13;;;;;;;70.45;26.83;;;;;;;;;;5091785;28;20062;-63
2021/11/15 05:00:40;;;;;;;67.30;27.33;;;;;;;;;;5093911;28;20425;-64
2021/11/15 05:03:06;;;;;;;66.65;26.15;;;;;;;;;;5095352;28;20823;-63
2021/11/15 05:05:33;;;;;;;62.10;25.65;;;;;;;;;;5095335;28;20097;-63
2021/11/15 05:07:59;;;;;;;59.88;23.95;;;;;;;;;;5091086;28;20072;-63
2021/11/15 05:10:27;;;;;;;58.47;22.58;;;;;;;;;;5091716;28;20039;-64
2021/11/15 05:12:54;;;;;;;64.22;23.35;;;;;;;;;;5093055;28;20046;-63
2021/11/15 05:15:20;;;;;;;61.75;24.50;;;;;;;;;;5093593;28;20035;-63
2021/11/15 05:17:48;;;;;;;57.47;24.45;;;;;;;;;;5091962;28;20067;-64
2021/11/15 05:20:15;;;;;;;53.58;22.60;;;;;;;;;;5092830;28;20073;-64
2021/11/15 05:22:42;;;;;;;51.05;22.70;;;;;;;;;;5097889;28;20153;-63
2021/11/15 05:25:08;;;;;;;57.10;21.17;;;;;;;;;;5092912;28;20444;-63
2021/11/15 05:27:35;;;;;;;51.67;21.70;;;;;;;;;;5093103;28;20039;-64
2021/11/15 05:30:01;;;;;;;50.20;22.42;;;;;;;;;;5086937;28;20426;-64
2021/11/15 05:32:27;;;;;;;49.33;22.23;;;;;;;;;;5094228;28;20044;-63
2021/11/15 05:34:54;;;;;;;52.13;23.42;;;;;;;;;;5088789;28;20039;-64
2021/11/15 05:37:20;;;;;;;55.38;22.42;;;;;;;;;;5097754;28;20043;-63
2021/11/15 05:39:46;;;;;;;51.85;23.00;;;;;;;;;;5093648;28;20491;-64
2021/11/15 05:42:12;;;;;;;56.53;22.90;;;;;;;;;;5090773;28;20124;-64
2021/11/15 05:44:38;;;;;;;58.83;23.63;;;;;;;;;;5090871;28;20039;-63
2021/11/15 05:47:04;;;;;;;53.13;22.00;;;;;;;;;;5091977;28;20063;-63
2021/11/15 05:49:31;;;;;;;51.40;22.25;;;;;;;;;;5087707;28;20047;-64
2021/11/15 05:51:57;;;;;;;52.75;20.98;;;;;;;;;;5092578;28;20500;-63
2021/11/15 05:54:23;;;;;;;47.42;20.77;;;;;;;;;;5089193;28;20384;-64
2021/11/15 05:56:50;;;;;;;50.80;21.05;;;;;;;;;;5093080;28;20073;-64
2021/11/15 05:59:16;;;;;;;44.42;19.45;;;;;;;;;;5088677;28;20089;-63
2021/11/15 06:01:43;;;;;;;42.40;19.92;;;;;;;;;;5081638;28;20044;-63
2021/11/15 06:04:10;;;;;;;48.30;19.40;;;;;;;;;;5089206;28;20046;-63
2021/11/15 06:06:36;;;;;;;46.38;20.40;;;;;;;;;;5083631;28;20056;-64
2021/11/15 06:09:03;;;;;;;43.83;18.13;;;;;;;;;;5087973;28;20505;-63
2021/11/15 06:11:29;;;;;;;37.58;18.98;;;;;;;;;;5084657;28;20426;-63
2021/11/15 06:13:56;;;;;;;46.05;18.73;;;;;;;;;;5093658;28;20036;-63
2021/11/15 06:16:22;;;;;;;51.53;20.35;;;;;;;;;;5093423;28;20402;-63
2021/11/15 06:18:49;;;;;;;60.45;23.67;;;;;;;;;;5091789;28;20480;-63
2021/11/15 06:21:15;;;;;;;56.00;23.50;;;;;;;;;;5089700;28;20697;-63
2021/11/15 06:23:42;;;;;;;62.35;24.02;;;;;;;;;;5087688;28;20037;-63
2021/11/15 06:26:08;;;;;;;72.18;28.50;;;;;;;;;;5087743;28;20040;-63
2021/11/15 06:28:34;;;;;;;69.30;27.65;;;;;;;;;;5088090;28;20052;-63
2021/11/15 06:31:00;;;;;;;67.80;28.27;;;;;;;;;;5089658;28;20036;-63
2021/11/15 06:33:26;;;;;;;69.20;29.00;;;;;;;;;;5094046;28;20046;-63
2021/11/15 06:35:53;;;;;;;67.45;27.63;;;;;;;;;;5087749;28;20119;-63
2021/11/15 06:38:19;;;;;;;78.18;30.13;;;;;;;;;;5088708;28;20108;-63
2021/11/15 06:40:45;;;;;;;78.00;29.23;;;;;;;;;;5089716;28;20512;-64
2021/11/15 06:43:11;;;;;;;70.53;26.33;;;;;;;;;;5087999;28;20047;-64
2021/11/15 06:45:37;;;;;;;71.20;26.98;;;;;;;;;;5088898;28;20391;-64
2021/11/15 06:48:04;;;;;;;78.15;27.75;;;;;;;;;;5089213;28;20325;-63
2021/11/15 06:50:30;;;;;;;69.35;26.90;;;;;;;;;;5089083;28;20494;-63
2021/11/15 06:52:56;;;;;;;74.45;26.67;;;;;;;;;;5089788;28;20361;-64
2021/11/15 06:55:23;;;;;;;71.63;28.75;;;;;;;;;;5086595;28;20040;-63
2021/11/15 06:57:50;;;;;;;84.00;27.95;;;;;;;;;;5088072;28;20063;-64
2021/11/15 07:00:18;;;;;;;75.20;28.35;;;;;;;;;;5086524;28;20059;-63
2021/11/15 07:02:45;;;;;;;85.05;28.58;;;;;;;;;;5090668;28;20044;-64
2021/11/15 07:05:14;;;;;;;85.93;31.08;;;;;;;;;;5089764;28;20052;-64
2021/11/15 07:07:40;;;;;;;84.45;31.35;;;;;;;;;;5089499;28;20075;-64
2021/11/15 07:10:07;;;;;;;76.82;28.23;;;;;;;;;;5086464;28;20097;-64
2021/11/15 07:12:34;;;;;;;79.57;29.25;;;;;;;;;;5089748;28;20118;-64
2021/11/15 07:15:00;;;;;;;85.90;30.85;;;;;;;;;;5090970;28;20054;-64
2021/11/15 07:17:26;;;;;;;96.47;30.52;;;;;;;;;;5090914;28;20040;-63
2021/11/15 07:19:52;;;;;;;79.65;29.45;;;;;;;;;;5089893;28;20423;-63
2021/11/15 07:22:18;;;;;;;82.35;29.00;;;;;;;;;;5089686;28;20048;-64
2021/11/15 07:24:46;;;;;;;82.22;29.55;;;;;;;;;;5089307;28;20058;-63
2021/11/15 07:27:12;;;;;;;78.50;28.00;;;;;;;;;;5090267;28;20422;-64
2021/11/15 07:29:39;;;;;;;93.55;29.27;;;;;;;;;;5087435;28;20040;-63
2021/11/15 07:32:10;;;;;;;84.43;29.38;;;;;;;;;;5083482;28;20484;-63
2021/11/15 07:34:37;;;;;;;74.13;26.90;;;;;;;;;;5085723;28;20047;-63
2021/11/15 07:37:03;;;;;;;76.75;28.65;;;;;;;;;;5085874;28;20452;-64
2021/11/15 07:39:29;;;;;;;81.55;28.52;;;;;;;;;;5090059;28;20040;-64
2021/11/15 07:41:55;;;;;;;98.63;32.10;;;;;;;;;;5091775;28;20048;-64
2021/11/15 07:44:22;;;;;;;78.93;31.83;;;;;;;;;;5091924;28;20104;-64
2021/11/15 07:46:48;;;;;;;91.03;29.90;;;;;;;;;;5090454;28;20123;-64
2021/11/15 07:49:15;;;;;;;89.05;31.55;;;;;;;;;;5090644;28;20444;-64
2021/11/15 07:51:41;;;;;;;88.45;32.40;;;;;;;;;;5090477;28;20487;-64
2021/11/15 07:54:07;;;;;;;86.35;33.40;;;;;;;;;;5089541;28;20032;-64
2021/11/15 07:56:34;;;;;;;84.13;30.38;;;;;;;;;;5092296;28;20052;-63
2021/11/15 07:59:00;;;;;;;85.60;29.73;;;;;;;;;;5094415;28;20052;-63
2021/11/15 08:01:26;;;;;;;70.70;27.42;;;;;;;;;;5093819;28;20036;-64
2021/11/15 08:03:52;;;;;;;69.72;28.15;;;;;;;;;;5093046;28;20199;-64
2021/11/15 08:06:19;;;;;;;69.82;27.83;;;;;;;;;;5094077;28;20137;-64
2021/11/15 08:08:47;;;;;;;71.35;28.35;;;;;;;;;;5093506;28;20044;-64
2021/11/15 08:11:15;;;;;;;72.70;28.55;;;;;;;;;;5093022;28;20044;-64
2021/11/15 08:13:41;;;;;;;80.53;30.60;;;;;;;;;;5094377;28;20074;-64
2021/11/15 08:16:08;;;;;;;75.28;30.00;;;;;;;;;;5091823;28;20127;-64
2021/11/15 08:18:37;;;;;;;83.68;30.98;;;;;;;;;;5094297;28;20344;-64
2021/11/15 08:21:08;;;;;;;80.32;30.55;;;;;;;;;;5092869;28;20187;-64
2021/11/15 08:23:34;;;;;;;85.38;31.20;;;;;;;;;;5089291;28;20062;-64
2021/11/15 08:26:19;;;;;;;80.75;29.20;;;;;;;;;;5093832;28;20040;-64
2021/11/15 08:28:46;;;;;;;83.85;31.10;;;;;;;;;;5089255;28;20052;-64
2021/11/15 08:31:12;;;;;;;85.50;30.98;;;;;;;;;;5091552;28;20040;-64
2021/11/15 08:33:38;;;;;;;94.78;32.83;;;;;;;;;;5093923;28;20407;-64
2021/11/15 08:36:05;;;;;;;92.38;32.65;;;;;;;;;;5091817;28;20048;-64
2021/11/15 08:38:42;;;;;;;78.30;28.88;;;;;;;;;;5092404;28;20128;-64
2021/11/15 08:41:08;;;;;;;73.00;29.13;;;;;;;;;;5093740;28;20488;-64
2021/11/15 08:43:35;;;;;;;75.43;28.58;;;;;;;;;;5092787;28;20396;-64
2021/11/15 08:46:01;;;;;;;77.10;28.52;;;;;;;;;;5092325;28;20490;-63
2021/11/15 08:48:27;;;;;;;83.40;30.95;;;;;;;;;;5093537;28;20473;-64
2021/11/15 08:50:53;;;;;;;85.10;30.02;;;;;;;;;;5092760;28;20082;-63
2021/11/15 08:53:20;;;;;;;81.30;29.15;;;;;;;;;;5093618;28;20048;-63
2021/11/15 08:55:46;;;;;;;87.13;29.65;;;;;;;;;;5093553;28;20048;-63
2021/11/15 08:58:12;;;;;;;82.95;30.15;;;;;;;;;;5088941;28;20464;-63
2021/11/15 09:00:42;;;;;;;77.13;30.48;;;;;;;;;;5093142;28;20135;-64
2021/11/15 09:03:08;;;;;;;80.40;31.02;;;;;;;;;;5093352;28;20040;-64
2021/11/15 09:05:35;;;;;;;73.43;29.23;;;;;;;;;;5092238;28;20083;-63
2021/11/15 09:08:01;;;;;;;76.10;29.50;;;;;;;;;;5092594;28;20074;-64
2021/11/15 09:10:28;;;;;;;88.13;31.17;;;;;;;;;;5093113;28;20464;-64
2021/11/15 09:12:55;;;;;;;78.70;28.95;;;;;;;;;;5092283;28;20075;-63
2021/11/15 09:15:21;;;;;;;89.82;30.90;;;;;;;;;;5092526;28;20381;-63
2021/11/15 09:17:47;;;;;;;87.97;32.20;;;;;;;;;;5092655;28;20040;-63
2021/11/15 09:20:14;;;;;;;77.47;30.00;;;;;;;;;;5091946;28;20364;-71
2021/11/15 09:22:40;;;;;;;79.80;31.15;;;;;;;;;;5093084;28;20075;-63
2021/11/15 09:25:08;;;;;;;74.47;26.35;;;;;;;;;;5091478;28;20396;-63
2021/11/15 09:27:34;;;;;;;69.63;26.02;;;;;;;;;;5092470;28;20456;-63
2021/11/15 09:30:03;;;;;;;69.35;24.55;;;;;;;;;;5091394;28;20040;-64
2021/11/15 09:32:29;;;;;;;74.82;25.65;;;;;;;;;;5091680;28;20126;-63
2021/11/15 09:34:55;;;;;;;62.75;23.08;;;;;;;;;;5092349;28;20040;-63
2021/11/15 09:37:22;;;;;;;65.70;23.40;;;;;;;;;;5092810;28;20054;-63
2021/11/15 09:39:50;;;;;;;62.38;22.40;;;;;;;;;;5091573;28;20036;-63
2021/11/15 09:42:16;;;;;;;57.85;21.52;;;;;;;;;;5092360;28;20054;-63
2021/11/15 09:44:43;;;;;;;57.15;20.70;;;;;;;;;;5092670;28;20034;-63
2021/11/15 09:47:10;;;;;;;57.65;19.77;;;;;;;;;;5089544;28;20452;-63
2021/11/15 09:49:36;;;;;;;54.47;19.90;;;;;;;;;;5092398;28;20043;-63
2021/11/15 09:52:03;;;;;;;51.58;18.00;;;;;;;;;;5091586;28;20480;-63
2021/11/15 09:54:29;;;;;;;48.33;19.25;;;;;;;;;;5091551;28;20044;-63
2021/11/15 09:56:56;;;;;;;47.60;20.05;;;;;;;;;;5092533;28;20062;-63
2021/11/15 09:59:24;;;;;;;44.58;18.23;;;;;;;;;;5090401;28;20122;-67
2021/11/15 10:01:52;;;;;;;46.60;18.90;;;;;;;;;;5090029;28;20055;-69
2021/11/15 10:04:19;;;;;;;44.00;17.88;;;;;;;;;;5090064;28;20055;-63
2021/11/15 10:06:46;;;;;;;45.72;18.45;;;;;;;;;;5091646;28;20055;-63
2021/11/15 10:09:12;;;;;;;48.80;17.05;;;;;;;;;;5091194;28;20055;-63
2021/11/15 10:11:44;;;;;;;53.33;18.50;;;;;;;;;;5091808;28;20044;-63
2021/11/15 10:14:10;;;;;;;50.28;18.38;;;;;;;;;;5091650;28;20086;-63
2021/11/15 10:16:37;;;;;;;42.55;17.00;;;;;;;;;;5089445;28;20052;-63
2021/11/15 10:19:05;;;;;;;44.92;15.95;;;;;;;;;;5091854;28;20091;-63
2021/11/15 10:21:35;;;;;;;42.38;16.45;;;;;;;;;;5090796;28;20044;-66
2021/11/15 10:24:03;;;;;;;40.03;17.00;;;;;;;;;;5091881;28;20044;-63
2021/11/15 10:26:36;;;;;;;42.20;15.70;;;;;;;;;;5091426;28;20040;-63
2021/11/15 10:29:05;;;;;;;48.90;16.40;;;;;;;;;;5090869;28;20044;-63
2021/11/15 10:31:38;;;;;;;47.70;16.35;;;;;;;;;;5090275;28;20044;-63
2021/11/15 10:34:07;;;;;;;42.78;15.77;;;;;;;;;;5090527;28;20074;-63
2021/11/15 10:36:45;;;;;;;38.72;14.63;;;;;;;;;;5090689;28;20402;-63
2021/11/15 10:39:11;;;;;;;43.88;14.48;;;;;;;;;;5091630;28;20476;-63
2021/11/15 10:41:37;;;;;;;39.42;14.38;;;;;;;;;;5089852;28;20036;-63
2021/11/15 10:44:08;;;;;;;43.17;15.77;;;;;;;;;;5090624;28;20125;-63
2021/11/15 10:46:37;;;;;;;42.88;15.38;;;;;;;;;;5087557;28;20059;-63
2021/11/15 10:49:05;;;;;;;42.05;14.90;;;;;;;;;;5091446;28;20059;-74
2021/11/15 10:51:53;;;;;;;35.00;13.82;;;;;;;;;;5089597;28;20456;-77
2021/11/15 10:54:32;;;;;;;35.50;14.70;;;;;;;;;;5088682;28;20368;-76
2021/11/15 10:57:15;;;;;;;35.58;13.88;;;;;;;;;;5090465;28;20395;-79
2021/11/15 10:59:41;;;;;;;39.47;14.50;;;;;;;;;;5089963;28;20113;-71
2021/11/15 11:02:24;;;;;;;44.08;14.07;;;;;;;;;;5090759;28;20082;-71
2021/11/15 11:05:05;;;;;;;38.38;13.85;;;;;;;;;;5089984;28;20039;-72
2021/11/15 11:07:31;;;;;;;58.60;15.70;;;;;;;;;;5090844;28;20438;-71
2021/11/15 11:10:00;;;;;;;37.92;14.68;;;;;;;;;;5090714;28;20389;-71
2021/11/15 11:12:35;;;;;;;42.28;14.52;;;;;;;;;;5085163;28;20044;-72
2021/11/15 11:15:22;;;;;;;38.17;14.40;;;;;;;;;;5087736;28;20051;-71
2021/11/15 11:18:03;;;;;;;33.80;12.15;;;;;;;;;;5085407;28;20044;-71
2021/11/15 11:20:36;;;;;;;40.10;14.68;;;;;;;;;;5080322;28;20041;-71
2021/11/15 11:23:23;;;;;;;34.30;12.63;;;;;;;;;;5085898;28;20067;-71
2021/11/15 11:25:49;;;;;;;36.78;13.30;;;;;;;;;;5078240;28;20041;-71
2021/11/15 11:28:26;;;;;;;37.28;14.60;;;;;;;;;;5081495;28;20047;-71
2021/11/15 11:30:52;;;;;;;36.58;13.65;;;;;;;;;;5096532;28;20044;-73
2021/11/15 11:33:19;;;;;;;37.08;12.45;;;;;;;;;;5079986;28;20128;-71
2021/11/15 11:35:45;;;;;;;31.35;11.13;;;;;;;;;;5078592;28;20133;-71
2021/11/15 11:38:11;;;;;;;30.05;12.25;;;;;;;;;;5084343;28;20506;-71
2021/11/15 11:40:39;;;;;;;34.17;12.68;;;;;;;;;;5086867;28;20122;-71
2021/11/15 11:43:05;;;;;;;35.08;12.10;;;;;;;;;;5082508;28;20505;-71
2021/11/15 11:45:31;;;;;;;37.13;12.18;;;;;;;;;;5075975;28;20123;-71
2021/11/15 11:47:58;;;;;;;32.45;12.48;;;;;;;;;;5079119;28;20040;-71
2021/11/15 11:50:24;;;;;;;37.22;12.55;;;;;;;;;;5085005;28;20044;-71
2021/11/15 11:53:06;;;;;;;30.90;11.68;;;;;;;;;;5075336;28;20045;-71
2021/11/15 11:55:42;;;;;;;26.45;10.38;;;;;;;;;;5083785;28;20383;-71
2021/11/15 11:58:18;;;;;;;26.02;10.07;;;;;;;;;;5082621;28;20094;-71
2021/11/15 12:00:49;;;;;;;25.40;10.55;;;;;;;;;;5092089;28;20036;-71
2021/11/15 12:03:15;;;;;;;24.63;10.95;;;;;;;;;;5082971;28;20036;-71
2021/11/15 12:05:42;;;;;;;33.17;10.93;;;;;;;;;;5080446;28;20131;-72
2021/11/15 12:08:09;;;;;;;24.17;9.80;;;;;;;;;;5080762;28;20074;-71
2021/11/15 12:10:44;;;;;;;22.33;9.70;;;;;;;;;;5083510;28;20364;-71
2021/11/15 12:13:12;;;;;;;33.15;12.38;;;;;;;;;;5076933;28;20044;-71
2021/11/15 12:15:42;;;;;;;24.95;11.32;;;;;;;;;;5083069;28;20043;-71
2021/11/15 12:18:11;;;;;;;30.30;12.43;;;;;;;;;;5075307;28;20048;-71
2021/11/15 12:20:56;;;;;;;26.90;10.77;;;;;;;;;;5081323;28;20115;-71
2021/11/15 12:23:22;;;;;;;27.33;11.18;;;;;;;;;;5074042;28;20547;-71
2021/11/15 12:26:02;;;;;;;29.45;11.93;;;;;;;;;;5077364;28;20146;-72
2021/11/15 12:28:29;;;;;;;33.28;12.20;;;;;;;;;;5079354;28;20051;-72
2021/11/15 12:30:57;;;;;;;28.35;11.52;;;;;;;;;;5081548;28;20131;-71
2021/11/15 12:33:25;;;;;;;32.45;12.18;;;;;;;;;;5082236;28;20048;-71
2021/11/15 12:35:54;;;;;;;32.13;12.73;;;;;;;;;;5081341;28;20044;-71
2021/11/15 12:38:38;;;;;;;33.63;12.10;;;;;;;;;;5084097;28;20040;-71
2021/11/15 12:41:04;;;;;;;;;;;;;;;;;;5083871;28;20562;-71
2021/11/15 12:43:31;;;;;;;27.60;11.35;;;;;;;;;;5099615;28;19975;-71
2021/11/15 12:46:13;;;;;;;26.50;10.63;;;;;;;;;;5085193;28;20440;-71
2021/11/15 12:48:41;;;;;;;28.90;9.75;;;;;;;;;;5083396;28;20052;-71
2021/11/15 12:51:15;;;;;;;26.60;9.73;;;;;;;;;;5082144;28;20337;-71
2021/11/15 12:53:43;;;;;;;22.25;9.45;;;;;;;;;;5087719;28;20072;-71
2021/11/15 12:56:11;;;;;;;21.15;8.73;;;;;;;;;;5083068;28;20040;-71
2021/11/15 12:58:37;;;;;;;18.63;8.68;;;;;;;;;;5088778;28;20048;-71
2021/11/15 13:01:03;;;;;;;18.45;9.10;;;;;;;;;;5080241;28;20048;-71
2021/11/15 13:03:29;;;;;;;18.23;8.75;;;;;;;;;;5081764;28;20560;-71
2021/11/15 13:05:56;;;;;;;22.30;7.50;;;;;;;;;;5079225;28;20272;-71
2021/11/15 13:08:22;;;;;;;19.52;8.63;;;;;;;;;;5090342;28;20485;-71
2021/11/15 13:10:49;;;;;;;20.98;8.52;;;;;;;;;;5083786;28;20043;-71
2021/11/15 13:13:16;;;;;;;17.23;7.85;;;;;;;;;;5079657;28;20040;-71
2021/11/15 13:15:43;;;;;;;20.08;8.00;;;;;;;;;;5090739;28;20608;-72
2021/11/15 13:18:09;;;;;;;19.40;8.13;;;;;;;;;;5071876;28;20051;-71
2021/11/15 13:20:35;;;;;;;19.83;9.43;;;;;;;;;;5071863;28;20118;-71
2021/11/15 13:23:02;;;;;;;21.92;8.70;;;;;;;;;;5091362;28;20054;-71
2021/11/15 13:25:28;;;;;;;18.42;8.88;;;;;;;;;;5090635;28;20046;-71
2021/11/15 13:27:54;;;;;;;22.55;10.00;;;;;;;;;;5092286;28;20051;-71
2021/11/15 13:30:21;;;;;;;25.20;9.77;;;;;;;;;;5091149;28;20074;-71
2021/11/15 13:32:50;;;;;;;26.63;11.05;;;;;;;;;;5088310;28;20044;-71
2021/11/15 13:35:17;;;;;;;29.42;11.82;;;;;;;;;;5092554;28;20501;-71
2021/11/15 13:37:43;;;;;;;34.88;14.15;;;;;;;;;;5092659;28;20122;-71
2021/11/15 13:40:09;;;;;;;36.13;16.50;;;;;;;;;;5091545;28;20118;-71
2021/11/15 13:42:36;;;;;;;37.13;17.27;;;;;;;;;;5091266;28;20036;-71
2021/11/15 13:45:02;;;;;;;42.05;15.65;;;;;;;;;;5092010;28;20500;-71
2021/11/15 13:47:28;;;;;;;53.30;20.67;;;;;;;;;;5089665;28;20089;-71
2021/11/15 13:49:55;;;;;;;61.13;22.33;;;;;;;;;;5086192;28;20037;-71
2021/11/15 13:52:21;;;;;;;59.63;22.65;;;;;;;;;;5083178;28;20036;-71
2021/11/15 13:54:49;;;;;;;59.65;22.75;;;;;;;;;;5085018;28;20548;-71
2021/11/15 13:57:18;;;;;;;74.15;26.13;;;;;;;;;;5083820;28;20041;-71
2021/11/15 13:59:45;;;;;;;61.97;23.63;;;;;;;;;;5083858;28;20053;-71
2021/11/15 14:02:12;;;;;;;61.47;23.42;;;;;;;;;;5082074;28;20086;-72
2021/11/15 14:04:38;;;;;;;57.10;22.45;;;;;;;;;;5085695;28;20047;-70
2021/11/15 14:07:04;;;;;;;62.30;26.35;;;;;;;;;;5083575;28;20097;-71
2021/11/15 14:09:31;;;;;;;75.78;27.73;;;;;;;;;;5082332;28;20043;-71
2021/11/15 14:11:57;;;;;;;72.38;27.25;;;;;;;;;;5085861;28;20115;-71
2021/11/15 14:14:23;;;;;;;76.15;28.70;;;;;;;;;;5085544;28;20726;-71
2021/11/15 14:16:50;;;;;;;84.03;30.30;;;;;;;;;;5085265;28;20123;-71
2021/11/15 14:19:16;;;;;;;90.47;30.50;;;;;;;;;;5083457;28;20040;-71
2021/11/15 14:21:42;;;;;;;82.68;29.98;;;;;;;;;;5088191;28;20130;-71